Terminal Aerodrome Forecast
Issued by NWS

Home | Current Version | Previous Version | Text Only | Print | Product List | Glossary On
Versions: 1 2 3 4 5 6 7 8 9 10 11 12 13 14 15 16 17
000
FTUS44 KTSA 291816 AAA
TAFBVO
TAF AMD
KBVO 291816Z 2918/3018 05009G14KT P6SM -RA VCTS FEW010 FEW080CB
      OVC100
      TEMPO 2918/2922 2SM TSRA BR BKN007CB
     FM292200 05011KT P6SM VCTS OVC015CB
      TEMPO 2922/3002 3SM TSRA BR BKN007CB
     FM300900 13007KT 4SM -RA BR OVC007
     FM301600 21009G20KT P6SM OVC015=

USA.gov is the U.S. government's official web portal to all federal, state and local government web resources and services.